FYT5807 LIRF-LHBP
Flight info
| Callsign | FYT5807 |
|---|---|
| Flight time | 1h 18m |
| Altitude | 34000 |
| Route | SOVAN L995 AMTEL/N0443F340 DCT BIKTU DCT ROSKA DCT BARPI/N0441F350 DCT MAGAM DCT KOPRY DCT ULZAK |
| Aircraft | A321/M-SDE1FGHIJ1RWXY/S |
Departure
| Time | 2026-05-06 07:22 |
|---|---|
| Airport | Rome–Fiumicino Leonardo da Vinci International Airport (LIRF) |
Arrival
| Time | 2026-05-06 08:40 |
|---|---|
| Airport | Budapest Liszt Ferenc International Airport (LHBP) |
| Time | Latitude | Longitude | Altitude | Speed | Heading |
|---|---|---|---|---|---|
| 2026-05-06 06:40 | 41.79590 | 12.24059 | 15 ft | 0 kts | 69° |
| 2026-05-06 07:07 | 41.79586 | 12.24042 | 15 ft | 2 kts | 69° |
| 2026-05-06 07:07 | 41.79580 | 12.24024 | 15 ft | 2 kts | 69° |
| 2026-05-06 07:07 | 41.79575 | 12.24005 | 14 ft | 2 kts | 69° |
| 2026-05-06 07:07 | 41.79568 | 12.23980 | 15 ft | 2 kts | 69° |
| 2026-05-06 07:08 | 41.79565 | 12.23968 | 14 ft | 2 kts | 68° |
| 2026-05-06 07:08 | 41.79560 | 12.23951 | 15 ft | 2 kts | 69° |
| 2026-05-06 07:08 | 41.79557 | 12.23941 | 15 ft | 1 kts | 62° |
| 2026-05-06 07:08 | 41.79552 | 12.23935 | 15 ft | 1 kts | 0° |
| 2026-05-06 07:09 | 41.79548 | 12.23937 | 15 ft | 1 kts | 332° |
| 2026-05-06 07:09 | 41.79543 | 12.23940 | 15 ft | 0 kts | 338° |
| 2026-05-06 07:10 | 41.79544 | 12.23939 | 15 ft | 0 kts | 338° |
| 2026-05-06 07:11 | 41.79563 | 12.23929 | 15 ft | 5 kts | 339° |
| 2026-05-06 07:11 | 41.79611 | 12.23904 | 15 ft | 8 kts | 339° |
| 2026-05-06 07:11 | 41.79673 | 12.23888 | 14 ft | 9 kts | 12° |
| 2026-05-06 07:11 | 41.79719 | 12.23955 | 15 ft | 10 kts | 63° |
| 2026-05-06 07:12 | 41.79747 | 12.24050 | 15 ft | 11 kts | 70° |
| 2026-05-06 07:12 | 41.79751 | 12.24066 | 15 ft | 0 kts | 70° |
| 2026-05-06 07:14 | 41.79751 | 12.24067 | 15 ft | 0 kts | 70° |
| 2026-05-06 07:14 | 41.79756 | 12.24085 | 15 ft | 5 kts | 70° |
| 2026-05-06 07:14 | 41.79777 | 12.24162 | 15 ft | 11 kts | 70° |
| 2026-05-06 07:15 | 41.79816 | 12.24260 | 15 ft | 12 kts | 38° |
| 2026-05-06 07:15 | 41.79902 | 12.24260 | 15 ft | 13 kts | 343° |
| 2026-05-06 07:15 | 41.79992 | 12.24226 | 15 ft | 13 kts | 360° |
| 2026-05-06 07:15 | 41.80052 | 12.24314 | 14 ft | 14 kts | 69° |
| 2026-05-06 07:16 | 41.80085 | 12.24440 | 14 ft | 14 kts | 71° |
| 2026-05-06 07:16 | 41.80119 | 12.24568 | 14 ft | 14 kts | 68° |
| 2026-05-06 07:16 | 41.80158 | 12.24700 | 14 ft | 15 kts | 69° |
| 2026-05-06 07:16 | 41.80194 | 12.24835 | 15 ft | 15 kts | 75° |
| 2026-05-06 07:17 | 41.80204 | 12.24978 | 15 ft | 15 kts | 91° |
| 2026-05-06 07:17 | 41.80230 | 12.25167 | 15 ft | 15 kts | 69° |
| 2026-05-06 07:17 | 41.80256 | 12.25258 | 15 ft | 15 kts | 68° |
| 2026-05-06 07:17 | 41.80296 | 12.25397 | 15 ft | 15 kts | 70° |
| 2026-05-06 07:18 | 41.80333 | 12.25539 | 15 ft | 16 kts | 71° |
| 2026-05-06 07:18 | 41.80370 | 12.25682 | 15 ft | 16 kts | 71° |
| 2026-05-06 07:18 | 41.80408 | 12.25826 | 16 ft | 16 kts | 70° |
| 2026-05-06 07:18 | 41.80458 | 12.26024 | 15 ft | 16 kts | 72° |
| 2026-05-06 07:19 | 41.80494 | 12.26111 | 15 ft | 16 kts | 69° |
| 2026-05-06 07:19 | 41.80531 | 12.26259 | 15 ft | 16 kts | 70° |
| 2026-05-06 07:19 | 41.80573 | 12.26406 | 14 ft | 17 kts | 69° |
| 2026-05-06 07:19 | 41.80615 | 12.26555 | 14 ft | 17 kts | 70° |
| 2026-05-06 07:20 | 41.80657 | 12.26710 | 14 ft | 17 kts | 70° |
| 2026-05-06 07:20 | 41.80700 | 12.26867 | 13 ft | 18 kts | 70° |
| 2026-05-06 07:20 | 41.80754 | 12.27016 | 13 ft | 17 kts | 40° |
| 2026-05-06 07:20 | 41.80871 | 12.27009 | 12 ft | 17 kts | 342° |
| 2026-05-06 07:21 | 41.80947 | 12.26901 | 12 ft | 23 kts | 258° |
| 2026-05-06 07:21 | 41.80821 | 12.26441 | 14 ft | 88 kts | 249° |
| 2026-05-06 07:21 | 41.80533 | 12.25391 | 16 ft | 150 kts | 249° |
| 2026-05-06 07:21 | 41.80027 | 12.23364 | 492 ft | 178 kts | 251° |
| 2026-05-06 07:22 | 41.79649 | 12.21839 | 1252 ft | 174 kts | 246° |
| 2026-05-06 07:22 | 41.79199 | 12.20350 | 1940 ft | 173 kts | 244° |
| 2026-05-06 07:22 | 41.79024 | 12.19310 | 2324 ft | 180 kts | 268° |
| 2026-05-06 07:22 | 41.79510 | 12.17757 | 2898 ft | 188 kts | 304° |
| 2026-05-06 07:23 | 41.80388 | 12.16448 | 3443 ft | 194 kts | 310° |
| 2026-05-06 07:23 | 41.81344 | 12.15092 | 3827 ft | 209 kts | 309° |
| 2026-05-06 07:23 | 41.82335 | 12.13586 | 4271 ft | 221 kts | 307° |
| 2026-05-06 07:23 | 41.83329 | 12.11988 | 4933 ft | 223 kts | 306° |
| 2026-05-06 07:24 | 41.84407 | 12.10525 | 5622 ft | 225 kts | 322° |
| 2026-05-06 07:24 | 41.85858 | 12.09683 | 6149 ft | 236 kts | 340° |
| 2026-05-06 07:24 | 41.87505 | 12.09073 | 6426 ft | 258 kts | 342° |
| 2026-05-06 07:24 | 41.89328 | 12.08445 | 6819 ft | 276 kts | 342° |
| 2026-05-06 07:25 | 41.91198 | 12.07786 | 7403 ft | 285 kts | 342° |
| 2026-05-06 07:25 | 41.93117 | 12.07093 | 8188 ft | 286 kts | 342° |
| 2026-05-06 07:25 | 41.95050 | 12.06441 | 8953 ft | 289 kts | 345° |
| 2026-05-06 07:25 | 41.97038 | 12.06015 | 9667 ft | 294 kts | 350° |
| 2026-05-06 07:26 | 41.99779 | 12.05712 | 10533 ft | 302 kts | 352° |
| 2026-05-06 07:26 | 42.01197 | 12.05577 | 10764 ft | 313 kts | 352° |
| 2026-05-06 07:26 | 42.03453 | 12.05362 | 11067 ft | 330 kts | 353° |
| 2026-05-06 07:26 | 42.05776 | 12.05141 | 11567 ft | 339 kts | 353° |
| 2026-05-06 07:27 | 42.08918 | 12.04843 | 12447 ft | 343 kts | 352° |
| 2026-05-06 07:27 | 42.10506 | 12.04689 | 12892 ft | 345 kts | 352° |
| 2026-05-06 07:27 | 42.12904 | 12.04456 | 13527 ft | 347 kts | 352° |
| 2026-05-06 07:27 | 42.15315 | 12.04221 | 14133 ft | 351 kts | 352° |
| 2026-05-06 07:28 | 42.17757 | 12.03959 | 14692 ft | 354 kts | 350° |
| 2026-05-06 07:28 | 42.21020 | 12.03335 | 15420 ft | 359 kts | 347° |
| 2026-05-06 07:28 | 42.25141 | 12.02401 | 16327 ft | 365 kts | 347° |
| 2026-05-06 07:29 | 42.27671 | 12.01824 | 16867 ft | 369 kts | 347° |
| 2026-05-06 07:29 | 42.30203 | 12.01249 | 17402 ft | 372 kts | 347° |
| 2026-05-06 07:29 | 42.32761 | 12.00670 | 17915 ft | 375 kts | 347° |
| 2026-05-06 07:29 | 42.35351 | 12.00087 | 18409 ft | 379 kts | 347° |
| 2026-05-06 07:30 | 42.37949 | 11.99502 | 18893 ft | 383 kts | 347° |
| 2026-05-06 07:30 | 42.40612 | 11.98901 | 19391 ft | 386 kts | 347° |
| 2026-05-06 07:30 | 42.44154 | 11.98103 | 20025 ft | 390 kts | 347° |
| 2026-05-06 07:30 | 42.45917 | 11.97705 | 20329 ft | 392 kts | 347° |
| 2026-05-06 07:31 | 42.48636 | 11.97090 | 20811 ft | 395 kts | 347° |
| 2026-05-06 07:31 | 42.51364 | 11.96474 | 21283 ft | 398 kts | 347° |
| 2026-05-06 07:31 | 42.54086 | 11.95858 | 21739 ft | 401 kts | 347° |
| 2026-05-06 07:31 | 42.56853 | 11.95230 | 22205 ft | 404 kts | 347° |
| 2026-05-06 07:32 | 42.59636 | 11.94600 | 22652 ft | 406 kts | 347° |
| 2026-05-06 07:32 | 42.62460 | 11.93959 | 23091 ft | 409 kts | 347° |
| 2026-05-06 07:32 | 42.65260 | 11.93323 | 23518 ft | 412 kts | 347° |
| 2026-05-06 07:32 | 42.68091 | 11.92682 | 23942 ft | 415 kts | 347° |
| 2026-05-06 07:33 | 42.70938 | 11.92037 | 24365 ft | 417 kts | 347° |
| 2026-05-06 07:33 | 42.73837 | 11.91376 | 24774 ft | 420 kts | 346° |
| 2026-05-06 07:33 | 42.76709 | 11.90722 | 25162 ft | 423 kts | 346° |
| 2026-05-06 07:33 | 42.80585 | 11.89799 | 25672 ft | 425 kts | 343° |
| 2026-05-06 07:34 | 42.82474 | 11.89145 | 25917 ft | 424 kts | 339° |
| 2026-05-06 07:34 | 42.85277 | 11.87771 | 26289 ft | 423 kts | 332° |
| 2026-05-06 07:34 | 42.87900 | 11.86034 | 26676 ft | 422 kts | 327° |
| 2026-05-06 07:34 | 42.91355 | 11.83505 | 27170 ft | 424 kts | 326° |
| 2026-05-06 07:35 | 42.93084 | 11.82220 | 27393 ft | 426 kts | 326° |
| 2026-05-06 07:35 | 42.96556 | 11.79645 | 27843 ft | 429 kts | 326° |
| 2026-05-06 07:35 | 42.98304 | 11.78355 | 28094 ft | 430 kts | 326° |
| 2026-05-06 07:35 | 43.01844 | 11.75749 | 28563 ft | 432 kts | 326° |
| 2026-05-06 07:36 | 43.04472 | 11.73817 | 28882 ft | 434 kts | 326° |
| 2026-05-06 07:36 | 43.07126 | 11.71865 | 29188 ft | 437 kts | 325° |
| 2026-05-06 07:36 | 43.08928 | 11.70539 | 29394 ft | 438 kts | 325° |
| 2026-05-06 07:36 | 43.11630 | 11.68548 | 29674 ft | 441 kts | 325° |
| 2026-05-06 07:37 | 43.14334 | 11.66555 | 29954 ft | 443 kts | 325° |
| 2026-05-06 07:37 | 43.18014 | 11.64083 | 30374 ft | 449 kts | 330° |
| 2026-05-06 07:37 | 43.19949 | 11.63034 | 30617 ft | 452 kts | 333° |
| 2026-05-06 07:37 | 43.22968 | 11.61726 | 31031 ft | 455 kts | 338° |
| 2026-05-06 07:38 | 43.26059 | 11.60773 | 31433 ft | 458 kts | 343° |
| 2026-05-06 07:38 | 43.30284 | 11.60059 | 31953 ft | 461 kts | 349° |
| 2026-05-06 07:38 | 43.33484 | 11.59760 | 32316 ft | 461 kts | 351° |
| 2026-05-06 07:38 | 43.36668 | 11.59505 | 32677 ft | 461 kts | 351° |
| 2026-05-06 07:39 | 43.38821 | 11.59335 | 32911 ft | 460 kts | 351° |
| 2026-05-06 07:39 | 43.42023 | 11.59075 | 33238 ft | 460 kts | 351° |
| 2026-05-06 07:39 | 43.45184 | 11.58809 | 33526 ft | 460 kts | 351° |
| 2026-05-06 07:39 | 43.48402 | 11.58532 | 33772 ft | 461 kts | 351° |
| 2026-05-06 07:40 | 43.52707 | 11.58153 | 33910 ft | 464 kts | 351° |
| 2026-05-06 07:40 | 43.54826 | 11.57966 | 33915 ft | 465 kts | 351° |
| 2026-05-06 07:40 | 43.61288 | 11.57398 | 33914 ft | 464 kts | 351° |
| 2026-05-06 07:41 | 43.68829 | 11.56729 | 33913 ft | 465 kts | 351° |
| 2026-05-06 07:41 | 43.75281 | 11.56156 | 33911 ft | 465 kts | 351° |
| 2026-05-06 07:42 | 43.80650 | 11.55679 | 33911 ft | 465 kts | 351° |
| 2026-05-06 07:42 | 43.87094 | 11.55109 | 33908 ft | 466 kts | 350° |
| 2026-05-06 07:43 | 43.94673 | 11.54804 | 33905 ft | 471 kts | 359° |
| 2026-05-06 07:43 | 44.00083 | 11.56137 | 33905 ft | 481 kts | 11° |
| 2026-05-06 07:44 | 44.07267 | 11.60658 | 33903 ft | 491 kts | 30° |
| 2026-05-06 07:44 | 44.11931 | 11.65190 | 33904 ft | 492 kts | 34° |
| 2026-05-06 07:45 | 44.17461 | 11.70782 | 33906 ft | 491 kts | 34° |
| 2026-05-06 07:45 | 44.23004 | 11.76322 | 33905 ft | 492 kts | 33° |
| 2026-05-06 07:46 | 44.29484 | 11.82763 | 33906 ft | 493 kts | 33° |
| 2026-05-06 07:46 | 44.35091 | 11.88336 | 33903 ft | 492 kts | 33° |
| 2026-05-06 07:47 | 44.39748 | 11.92971 | 33906 ft | 492 kts | 33° |
| 2026-05-06 07:47 | 44.46234 | 11.99443 | 33904 ft | 492 kts | 33° |
| 2026-05-06 07:48 | 44.50879 | 12.04088 | 33902 ft | 492 kts | 33° |
| 2026-05-06 07:48 | 44.56395 | 12.09623 | 33901 ft | 493 kts | 32° |
| 2026-05-06 07:49 | 44.61989 | 12.15242 | 33892 ft | 493 kts | 33° |
| 2026-05-06 07:49 | 44.67546 | 12.20838 | 33886 ft | 493 kts | 33° |
| 2026-05-06 07:50 | 44.74000 | 12.27357 | 33885 ft | 494 kts | 33° |
| 2026-05-06 07:50 | 44.78674 | 12.32089 | 33886 ft | 494 kts | 33° |
| 2026-05-06 07:51 | 44.84224 | 12.37722 | 33890 ft | 495 kts | 32° |
| 2026-05-06 07:51 | 44.90723 | 12.44336 | 33894 ft | 494 kts | 33° |
| 2026-05-06 07:52 | 44.96264 | 12.49989 | 33895 ft | 493 kts | 32° |
| 2026-05-06 07:52 | 45.01823 | 12.55673 | 33896 ft | 494 kts | 32° |
| 2026-05-06 07:53 | 45.07390 | 12.61383 | 33910 ft | 494 kts | 32° |
| 2026-05-06 07:53 | 45.12015 | 12.66134 | 34144 ft | 495 kts | 33° |
| 2026-05-06 07:54 | 45.15728 | 12.69958 | 34288 ft | 494 kts | 33° |
| 2026-05-06 07:54 | 45.18491 | 12.72810 | 34396 ft | 494 kts | 33° |
| 2026-05-06 07:54 | 45.21282 | 12.75692 | 34505 ft | 495 kts | 33° |
| 2026-05-06 07:54 | 45.23144 | 12.77616 | 34569 ft | 495 kts | 33° |
| 2026-05-06 07:55 | 45.26756 | 12.81597 | 34695 ft | 499 kts | 38° |
| 2026-05-06 07:55 | 45.28477 | 12.83784 | 34759 ft | 500 kts | 41° |
| 2026-05-06 07:55 | 45.33148 | 12.91095 | 34905 ft | 503 kts | 51° |
| 2026-05-06 07:56 | 45.37597 | 13.00818 | 34908 ft | 502 kts | 60° |
| 2026-05-06 07:56 | 45.40477 | 13.07955 | 34907 ft | 502 kts | 60° |
| 2026-05-06 07:57 | 45.44549 | 13.17957 | 34910 ft | 502 kts | 60° |
| 2026-05-06 07:57 | 45.47474 | 13.25090 | 34912 ft | 501 kts | 59° |
| 2026-05-06 07:58 | 45.50983 | 13.33650 | 34917 ft | 500 kts | 59° |
| 2026-05-06 07:58 | 45.54454 | 13.42152 | 34920 ft | 501 kts | 59° |
| 2026-05-06 07:59 | 45.58145 | 13.52403 | 34925 ft | 499 kts | 68° |
| 2026-05-06 07:59 | 45.60415 | 13.61726 | 34927 ft | 499 kts | 76° |
| 2026-05-06 08:00 | 45.62190 | 13.71322 | 34930 ft | 499 kts | 77° |
| 2026-05-06 08:00 | 45.63922 | 13.80846 | 34933 ft | 499 kts | 77° |
| 2026-05-06 08:01 | 45.65376 | 13.88780 | 34933 ft | 498 kts | 77° |
| 2026-05-06 08:01 | 45.67426 | 13.99931 | 34935 ft | 498 kts | 77° |
| 2026-05-06 08:02 | 45.68892 | 14.07943 | 34935 ft | 498 kts | 77° |
| 2026-05-06 08:02 | 45.70914 | 14.19046 | 34935 ft | 498 kts | 77° |
| 2026-05-06 08:03 | 45.72365 | 14.27050 | 34933 ft | 498 kts | 77° |
| 2026-05-06 08:03 | 45.74372 | 14.38168 | 34932 ft | 497 kts | 77° |
| 2026-05-06 08:04 | 45.76087 | 14.47741 | 34921 ft | 498 kts | 77° |
| 2026-05-06 08:04 | 45.77789 | 14.57289 | 34920 ft | 497 kts | 77° |
| 2026-05-06 08:05 | 45.79203 | 14.65241 | 34916 ft | 496 kts | 77° |
| 2026-05-06 08:05 | 45.81169 | 14.76379 | 34912 ft | 496 kts | 77° |
| 2026-05-06 08:06 | 45.82562 | 14.84316 | 34914 ft | 495 kts | 77° |
| 2026-05-06 08:06 | 45.84510 | 14.95463 | 34915 ft | 495 kts | 77° |
| 2026-05-06 08:07 | 45.85891 | 15.03420 | 34903 ft | 495 kts | 77° |
| 2026-05-06 08:07 | 45.87823 | 15.14586 | 34912 ft | 494 kts | 77° |
| 2026-05-06 08:08 | 45.89188 | 15.22547 | 34915 ft | 494 kts | 77° |
| 2026-05-06 08:08 | 45.91080 | 15.33615 | 34932 ft | 494 kts | 77° |
| 2026-05-06 08:09 | 45.92707 | 15.43193 | 34929 ft | 493 kts | 77° |
| 2026-05-06 08:09 | 45.94313 | 15.52699 | 34931 ft | 491 kts | 77° |
| 2026-05-06 08:10 | 45.95907 | 15.62193 | 34933 ft | 490 kts | 77° |
| 2026-05-06 08:10 | 45.97566 | 15.71673 | 34930 ft | 489 kts | 75° |
| 2026-05-06 08:11 | 45.99234 | 15.79467 | 34926 ft | 489 kts | 73° |
| 2026-05-06 08:11 | 46.01609 | 15.90276 | 34930 ft | 487 kts | 73° |
| 2026-05-06 08:12 | 46.03623 | 15.99535 | 35013 ft | 487 kts | 73° |
| 2026-05-06 08:12 | 46.05286 | 16.07249 | 34951 ft | 486 kts | 73° |
| 2026-05-06 08:13 | 46.07279 | 16.16534 | 34931 ft | 485 kts | 73° |
| 2026-05-06 08:13 | 46.09586 | 16.27341 | 34923 ft | 484 kts | 73° |
| 2026-05-06 08:14 | 46.11543 | 16.36547 | 34922 ft | 484 kts | 72° |
| 2026-05-06 08:14 | 46.13513 | 16.45853 | 34925 ft | 483 kts | 72° |
| 2026-05-06 08:15 | 46.15451 | 16.55054 | 34921 ft | 482 kts | 72° |
| 2026-05-06 08:15 | 46.17386 | 16.64285 | 34920 ft | 481 kts | 73° |
| 2026-05-06 08:16 | 46.19302 | 16.73469 | 34913 ft | 480 kts | 73° |
| 2026-05-06 08:16 | 46.20893 | 16.81131 | 34910 ft | 480 kts | 73° |
| 2026-05-06 08:17 | 46.23365 | 16.91782 | 34907 ft | 479 kts | 67° |
| 2026-05-06 08:17 | 46.26225 | 17.00373 | 34902 ft | 477 kts | 59° |
| 2026-05-06 08:18 | 46.29778 | 17.08413 | 34920 ft | 475 kts | 53° |
| 2026-05-06 08:18 | 46.33576 | 17.16233 | 34918 ft | 475 kts | 53° |
| 2026-05-06 08:19 | 46.36726 | 17.22742 | 34914 ft | 475 kts | 53° |
| 2026-05-06 08:19 | 46.41124 | 17.31902 | 34920 ft | 476 kts | 53° |
| 2026-05-06 08:20 | 46.44891 | 17.39796 | 34883 ft | 476 kts | 53° |
| 2026-05-06 08:20 | 46.48631 | 17.47663 | 34906 ft | 475 kts | 53° |
| 2026-05-06 08:21 | 46.51749 | 17.54232 | 34911 ft | 475 kts | 53° |
| 2026-05-06 08:21 | 46.56107 | 17.63447 | 34722 ft | 474 kts | 53° |
| 2026-05-06 08:22 | 46.57353 | 17.66084 | 34210 ft | 477 kts | 54° |
| 2026-05-06 08:22 | 46.59882 | 17.71440 | 32774 ft | 487 kts | 54° |
| 2026-05-06 08:22 | 46.61182 | 17.74198 | 32162 ft | 489 kts | 54° |
| 2026-05-06 08:22 | 46.63762 | 17.79685 | 31082 ft | 488 kts | 55° |
| 2026-05-06 08:23 | 46.65028 | 17.82381 | 30547 ft | 488 kts | 55° |
| 2026-05-06 08:23 | 46.67561 | 17.87789 | 29463 ft | 487 kts | 56° |
| 2026-05-06 08:23 | 46.69460 | 17.91855 | 28872 ft | 481 kts | 55° |
| 2026-05-06 08:23 | 46.71309 | 17.95819 | 28287 ft | 476 kts | 55° |
| 2026-05-06 08:24 | 46.73153 | 17.99778 | 27677 ft | 470 kts | 55° |
| 2026-05-06 08:24 | 46.74993 | 18.03729 | 27072 ft | 465 kts | 55° |
| 2026-05-06 08:24 | 46.76169 | 18.06259 | 26672 ft | 462 kts | 55° |
| 2026-05-06 08:24 | 46.78566 | 18.11420 | 25834 ft | 456 kts | 55° |
| 2026-05-06 08:25 | 46.79731 | 18.13930 | 25442 ft | 453 kts | 55° |
| 2026-05-06 08:25 | 46.82075 | 18.18989 | 24647 ft | 446 kts | 55° |
| 2026-05-06 08:25 | 46.83792 | 18.22704 | 24029 ft | 443 kts | 55° |
| 2026-05-06 08:25 | 46.85508 | 18.26415 | 23426 ft | 438 kts | 55° |
| 2026-05-06 08:26 | 46.87182 | 18.30041 | 22865 ft | 433 kts | 55° |
| 2026-05-06 08:26 | 46.88869 | 18.33698 | 22284 ft | 429 kts | 55° |
| 2026-05-06 08:26 | 46.90507 | 18.37258 | 21711 ft | 425 kts | 55° |
| 2026-05-06 08:26 | 46.92145 | 18.40822 | 21168 ft | 421 kts | 56° |
| 2026-05-06 08:27 | 46.93761 | 18.44348 | 20628 ft | 416 kts | 56° |
| 2026-05-06 08:27 | 46.95375 | 18.47869 | 20061 ft | 413 kts | 56° |
| 2026-05-06 08:27 | 46.96954 | 18.51320 | 19513 ft | 409 kts | 56° |
| 2026-05-06 08:27 | 46.98015 | 18.53611 | 19155 ft | 406 kts | 54° |
| 2026-05-06 08:28 | 47.00607 | 18.57463 | 18381 ft | 402 kts | 32° |
| 2026-05-06 08:28 | 47.03123 | 18.59197 | 17856 ft | 396 kts | 20° |
| 2026-05-06 08:28 | 47.04800 | 18.60144 | 17517 ft | 394 kts | 19° |
| 2026-05-06 08:28 | 47.08197 | 18.62039 | 16789 ft | 391 kts | 19° |
| 2026-05-06 08:29 | 47.09892 | 18.62991 | 16427 ft | 390 kts | 19° |
| 2026-05-06 08:29 | 47.13268 | 18.64905 | 15730 ft | 386 kts | 19° |
| 2026-05-06 08:29 | 47.15751 | 18.66323 | 15220 ft | 383 kts | 20° |
| 2026-05-06 08:29 | 47.17404 | 18.67273 | 14870 ft | 382 kts | 20° |
| 2026-05-06 08:30 | 47.20718 | 18.69184 | 14184 ft | 378 kts | 19° |
| 2026-05-06 08:30 | 47.23159 | 18.70594 | 13829 ft | 370 kts | 19° |
| 2026-05-06 08:30 | 47.25502 | 18.71949 | 13465 ft | 358 kts | 19° |
| 2026-05-06 08:30 | 47.27787 | 18.73275 | 12889 ft | 345 kts | 19° |
| 2026-05-06 08:31 | 47.29997 | 18.74553 | 12212 ft | 337 kts | 19° |
| 2026-05-06 08:31 | 47.32156 | 18.75802 | 11574 ft | 327 kts | 19° |
| 2026-05-06 08:31 | 47.33530 | 18.76598 | 11221 ft | 320 kts | 19° |
| 2026-05-06 08:31 | 47.35580 | 18.77786 | 10584 ft | 313 kts | 19° |
| 2026-05-06 08:32 | 47.38258 | 18.79340 | 9739 ft | 305 kts | 20° |
| 2026-05-06 08:32 | 47.39592 | 18.80115 | 9282 ft | 303 kts | 20° |
| 2026-05-06 08:32 | 47.42245 | 18.81661 | 8330 ft | 300 kts | 20° |
| 2026-05-06 08:32 | 47.44208 | 18.82805 | 7638 ft | 297 kts | 20° |
| 2026-05-06 08:33 | 47.46108 | 18.83913 | 6978 ft | 294 kts | 20° |
| 2026-05-06 08:33 | 47.47362 | 18.84644 | 6541 ft | 293 kts | 21° |
| 2026-05-06 08:33 | 47.49238 | 18.85741 | 5950 ft | 287 kts | 21° |
| 2026-05-06 08:33 | 47.51645 | 18.87149 | 5510 ft | 271 kts | 21° |
| 2026-05-06 08:34 | 47.53368 | 18.88182 | 5399 ft | 259 kts | 25° |
| 2026-05-06 08:34 | 47.56258 | 18.91244 | 4924 ft | 255 kts | 43° |
| 2026-05-06 08:34 | 47.57569 | 18.93041 | 4611 ft | 254 kts | 44° |
| 2026-05-06 08:35 | 47.58837 | 18.94874 | 4277 ft | 252 kts | 53° |
| 2026-05-06 08:35 | 47.59501 | 18.97248 | 3901 ft | 243 kts | 93° |
| 2026-05-06 08:35 | 47.59024 | 18.99489 | 3799 ft | 220 kts | 131° |
| 2026-05-06 08:35 | 47.58012 | 19.01141 | 3808 ft | 216 kts | 138° |
| 2026-05-06 08:36 | 47.56944 | 19.02695 | 3898 ft | 217 kts | 139° |
| 2026-05-06 08:36 | 47.55875 | 19.04306 | 3617 ft | 216 kts | 137° |
| 2026-05-06 08:36 | 47.54864 | 19.05900 | 3309 ft | 210 kts | 136° |
| 2026-05-06 08:36 | 47.53900 | 19.07457 | 3009 ft | 202 kts | 135° |
| 2026-05-06 08:37 | 47.52982 | 19.08951 | 2732 ft | 189 kts | 136° |
| 2026-05-06 08:37 | 47.52398 | 19.09900 | 2610 ft | 183 kts | 136° |
| 2026-05-06 08:37 | 47.51308 | 19.11668 | 2279 ft | 166 kts | 136° |
| 2026-05-06 08:37 | 47.50549 | 19.12898 | 2062 ft | 161 kts | 137° |
| 2026-05-06 08:38 | 47.49792 | 19.14119 | 1866 ft | 158 kts | 137° |
| 2026-05-06 08:38 | 47.49079 | 19.15278 | 1641 ft | 144 kts | 137° |
| 2026-05-06 08:38 | 47.48403 | 19.16370 | 1462 ft | 142 kts | 137° |
| 2026-05-06 08:38 | 47.47735 | 19.17448 | 1288 ft | 141 kts | 137° |
| 2026-05-06 08:39 | 47.47068 | 19.18525 | 1102 ft | 141 kts | 136° |
| 2026-05-06 08:39 | 47.46397 | 19.19610 | 913 ft | 142 kts | 136° |
| 2026-05-06 08:39 | 47.45955 | 19.20326 | 789 ft | 142 kts | 136° |
| 2026-05-06 08:39 | 47.45058 | 19.21766 | 550 ft | 141 kts | 135° |
| 2026-05-06 08:40 | 47.44623 | 19.22483 | 459 ft | 140 kts | 135° |
| 2026-05-06 08:40 | 47.43881 | 19.23673 | 441 ft | 86 kts | 131° |
| 2026-05-06 08:40 | 47.43588 | 19.24143 | 438 ft | 38 kts | 134° |
| 2026-05-06 08:40 | 47.43413 | 19.24424 | 440 ft | 35 kts | 130° |
| 2026-05-06 08:41 | 47.43255 | 19.24692 | 444 ft | 31 kts | 128° |
| 2026-05-06 08:41 | 47.43113 | 19.24919 | 448 ft | 28 kts | 118° |
| 2026-05-06 08:41 | 47.43172 | 19.25149 | 454 ft | 24 kts | 45° |
| 2026-05-06 08:41 | 47.43287 | 19.25308 | 460 ft | 20 kts | 42° |
| 2026-05-06 08:42 | 47.43322 | 19.25463 | 464 ft | 17 kts | 124° |
| 2026-05-06 08:42 | 47.43247 | 19.25592 | 465 ft | 13 kts | 116° |
| 2026-05-06 08:42 | 47.43253 | 19.25639 | 466 ft | 3 kts | 59° |
| 2026-05-06 08:42 | 47.43267 | 19.25665 | 466 ft | 2 kts | 52° |
| 2026-05-06 08:43 | 47.43277 | 19.25681 | 467 ft | 1 kts | 46° |
| 2026-05-06 08:43 | 47.43282 | 19.25689 | 467 ft | 0 kts | 41° |
| 2026-05-06 08:43 | 47.43283 | 19.25690 | 467 ft | 0 kts | 44° |
| 2026-05-06 08:43 | 47.43285 | 19.25692 | 467 ft | 0 kts | 43° |
| 2026-05-06 08:44 | 47.43289 | 19.25698 | 467 ft | 0 kts | 43° |
| 2026-05-06 08:44 | 47.43291 | 19.25701 | 467 ft | 0 kts | 43° |